Time;durP1;ratioP1;P1;durP2;ratioP2;P2;SDS_P1;SDS_P2;PMS_P1;PMS_P2;Temp;Humidity;BMP_temperature;BMP_pressure;BME280_temperature;BME280_humidity;BME280_pressure;Samples;Min_cycle;Max_cycle;Signal;HPM_P1;HPM_P2
2022/11/19 00:00:17;;;;;;;0.60;0.60;;;;;;;;;;6130965;23;20005;-93
2022/11/19 00:21:03;;;;;;;0.50;0.50;;;;;;;;;;6130889;23;20025;-93
2022/11/19 00:23:29;;;;;;;0.50;0.50;;;;;;;;;;6127043;23;20026;-93
2022/11/19 00:29:06;;;;;;;0.50;0.50;;;;;;;;;;6148630;23;20016;-94
2022/11/19 00:31:33;;;;;;;0.50;0.50;;;;;;;;;;6126366;23;20022;-93
2022/11/19 00:34:00;;;;;;;0.50;0.50;;;;;;;;;;6100991;23;20211;-93
2022/11/19 00:36:29;;;;;;;0.60;0.60;;;;;;;;;;6102425;23;20045;-93
2022/11/19 00:39:04;;;;;;;2.55;2.35;;;;;;;;;;6103456;23;20073;-95
2022/11/19 00:41:33;;;;;;;0.40;0.40;;;;;;;;;;6122226;23;20029;-94
2022/11/19 00:44:07;;;;;;;0.50;0.50;;;;;;;;;;6102754;23;20252;-92
2022/11/19 01:28:54;;;;;;;0.60;0.60;;;;;;;;;;6152014;23;20022;-92
2022/11/19 01:31:36;;;;;;;0.60;0.60;;;;;;;;;;6098591;23;20033;-92
2022/11/19 01:34:42;;;;;;;0.50;0.50;;;;;;;;;;6104698;23;20026;-93
2022/11/19 01:37:09;;;;;;;0.30;0.30;;;;;;;;;;6033580;23;20056;-92
2022/11/19 01:39:47;;;;;;;0.60;0.60;;;;;;;;;;6103952;23;20070;-94
2022/11/19 01:42:54;;;;;;;0.60;0.60;;;;;;;;;;6126508;23;20583;-93
2022/11/19 01:45:40;;;;;;;0.60;0.60;;;;;;;;;;6104243;23;20010;-93
2022/11/19 01:48:36;;;;;;;0.60;0.60;;;;;;;;;;6104164;23;20074;-94
2022/11/19 01:51:32;;;;;;;0.50;0.50;;;;;;;;;;6073072;23;20047;-93
2022/11/19 01:54:07;;;;;;;0.50;0.50;;;;;;;;;;6046351;23;20042;-93
2022/11/19 01:56:49;;;;;;;0.50;0.50;;;;;;;;;;6023041;23;20026;-92
2022/11/19 01:59:37;;;;;;;0.50;0.50;;;;;;;;;;6069511;23;20070;-92
2022/11/19 02:02:04;;;;;;;1.40;1.30;;;;;;;;;;6046588;23;19999;-93
2022/11/19 02:42:23;;;;;;;0.60;0.60;;;;;;;;;;6128211;23;20056;-91
2022/11/19 02:44:58;;;;;;;;;;;;;;;;;;6105377;23;20057;-94
2022/11/19 02:47:48;;;;;;;0.60;0.60;;;;;;;;;;6125227;23;19913;-92
2022/11/19 03:09:57;;;;;;;0.60;0.60;;;;;;;;;;6148354;23;20053;-93
2022/11/19 03:12:53;;;;;;;0.60;0.60;;;;;;;;;;6104643;23;20012;-93
2022/11/19 03:18:34;;;;;;;0.55;0.55;;;;;;;;;;6128115;23;20026;-94
2022/11/19 03:21:40;;;;;;;0.60;0.60;;;;;;;;;;6103750;23;20010;-94
2022/11/19 03:24:24;;;;;;;0.50;0.50;;;;;;;;;;6104769;23;20050;-93
2022/11/19 03:30:16;;;;;;;0.65;0.65;;;;;;;;;;6145831;23;20029;-92
2022/11/19 03:32:49;;;;;;;0.60;0.60;;;;;;;;;;6103337;23;20006;-92
2022/11/19 03:38:54;;;;;;;0.60;0.60;;;;;;;;;;6150647;23;20100;-91
2022/11/19 03:46:48;;;;;;;0.60;0.60;;;;;;;;;;6152207;23;20030;-93
2022/11/19 03:49:35;;;;;;;0.60;0.60;;;;;;;;;;6124451;23;20078;-92
2022/11/19 03:52:13;;;;;;;0.60;0.60;;;;;;;;;;6104872;23;20106;-92
2022/11/19 03:54:48;;;;;;;0.60;0.60;;;;;;;;;;6104420;23;20002;-92
2022/11/19 03:57:14;;;;;;;;;;;;;;;;;;6081842;23;20049;-92
2022/11/19 03:59:47;;;;;;;0.70;0.70;;;;;;;;;;6127700;23;19916;-92
2022/11/19 04:02:14;;;;;;;0.60;0.60;;;;;;;;;;6103949;23;20029;-93
2022/11/19 04:05:01;;;;;;;0.60;0.60;;;;;;;;;;6103832;23;20002;-93
2022/11/19 04:07:45;;;;;;;0.50;0.50;;;;;;;;;;6112117;23;20006;-93
2022/11/19 04:10:23;;;;;;;0.50;0.50;;;;;;;;;;6105819;23;20021;-93
2022/11/19 04:21:38;;;;;;;0.50;0.50;;;;;;;;;;6151043;23;20013;-90
2022/11/19 04:24:23;;;;;;;0.47;0.47;;;;;;;;;;6089411;23;20028;-88
2022/11/19 04:27:23;;;;;;;0.52;0.52;;;;;;;;;;6044625;23;20026;-90
2022/11/19 04:29:55;;;;;;;0.60;0.60;;;;;;;;;;6039812;23;20079;-88
2022/11/19 04:32:39;;;;;;;0.60;0.60;;;;;;;;;;6150375;23;20021;-88
2022/11/19 04:35:13;;;;;;;0.50;0.50;;;;;;;;;;6102064;23;20026;-90
2022/11/19 04:37:57;;;;;;;0.60;0.60;;;;;;;;;;6104115;23;20029;-90
2022/11/19 04:40:34;;;;;;;0.50;0.50;;;;;;;;;;6126808;23;20026;-89
2022/11/19 04:43:04;;;;;;;0.60;0.60;;;;;;;;;;6127398;23;20078;-88
2022/11/19 04:45:34;;;;;;;0.60;0.60;;;;;;;;;;6102583;23;20002;-88
2022/11/19 04:48:03;;;;;;;0.60;0.60;;;;;;;;;;6103453;23;20018;-90
2022/11/19 04:50:37;;;;;;;0.60;0.60;;;;;;;;;;6102031;23;20002;-90
2022/11/19 04:56:42;;;;;;;0.60;0.60;;;;;;;;;;6161877;23;20083;-90
2022/11/19 04:59:42;;;;;;;0.60;0.60;;;;;;;;;;6103091;23;20045;-89
2022/11/19 05:02:14;;;;;;;0.50;0.50;;;;;;;;;;6080402;23;20021;-88
2022/11/19 05:04:43;;;;;;;0.60;0.60;;;;;;;;;;6103500;23;20026;-90
2022/11/19 05:31:18;;;;;;;0.70;0.70;;;;;;;;;;6154590;23;20057;-94
2022/11/19 05:33:44;;;;;;;0.60;0.60;;;;;;;;;;6108682;23;20324;-94
2022/11/19 05:36:10;;;;;;;0.60;0.60;;;;;;;;;;6108065;23;20021;-93
2022/11/19 05:38:36;;;;;;;0.60;0.60;;;;;;;;;;6108881;23;20017;-94
2022/11/19 05:41:02;;;;;;;0.60;0.60;;;;;;;;;;6107704;23;20132;-94
2022/11/19 05:43:28;;;;;;;0.60;0.60;;;;;;;;;;6110794;23;20411;-94
2022/11/19 05:45:54;;;;;;;0.70;0.70;;;;;;;;;;6107988;23;20018;-95
2022/11/19 05:48:20;;;;;;;0.70;0.70;;;;;;;;;;6108133;23;20049;-96
2022/11/19 05:50:46;;;;;;;0.60;0.60;;;;;;;;;;6109256;23;20335;-96
2022/11/19 05:53:12;;;;;;;0.60;0.60;;;;;;;;;;6109341;23;20040;-96
2022/11/19 05:55:38;;;;;;;0.65;0.65;;;;;;;;;;6107954;23;20013;-95
2022/11/19 05:58:04;;;;;;;0.65;0.65;;;;;;;;;;6107599;23;20013;-96
2022/11/19 06:00:30;;;;;;;0.60;0.60;;;;;;;;;;6107786;23;20013;-95
2022/11/19 06:02:56;;;;;;;0.60;0.60;;;;;;;;;;6107162;23;20013;-95
2022/11/19 06:05:22;;;;;;;0.60;0.60;;;;;;;;;;6107046;23;20017;-95
2022/11/19 06:07:48;;;;;;;0.70;0.70;;;;;;;;;;6107645;23;20092;-95
2022/11/19 06:10:14;;;;;;;0.70;0.70;;;;;;;;;;6107098;23;20355;-96
2022/11/19 06:12:41;;;;;;;0.60;0.60;;;;;;;;;;6108262;23;20453;-95
2022/11/19 06:15:07;;;;;;;0.60;0.60;;;;;;;;;;6107838;23;20068;-94
2022/11/19 06:17:33;;;;;;;0.70;0.70;;;;;;;;;;6108550;23;20013;-95
2022/11/19 06:19:59;;;;;;;0.77;0.77;;;;;;;;;;6107951;23;20074;-94
2022/11/19 06:22:25;;;;;;;0.60;0.60;;;;;;;;;;6107963;23;20017;-96
2022/11/19 06:24:51;;;;;;;0.60;0.60;;;;;;;;;;6108287;23;20018;-96
2022/11/19 06:27:17;;;;;;;0.60;0.60;;;;;;;;;;6108188;23;20469;-95
2022/11/19 06:29:43;;;;;;;0.60;0.60;;;;;;;;;;6132427;23;20009;-95
2022/11/19 06:32:09;;;;;;;0.60;0.60;;;;;;;;;;6103464;23;20018;-96
2022/11/19 06:34:35;;;;;;;0.60;0.60;;;;;;;;;;6104990;23;20014;-95
2022/11/19 06:37:01;;;;;;;0.60;0.60;;;;;;;;;;6103336;23;20022;-95
2022/11/19 06:39:27;;;;;;;0.70;0.70;;;;;;;;;;6102900;23;20020;-95
2022/11/19 06:42:34;;;;;;;0.60;0.60;;;;;;;;;;6103666;23;20017;-96
2022/11/19 06:44:39;;;;;;;0.80;0.80;;;;;;;;;;6128565;23;20072;-95
2022/11/19 06:47:05;;;;;;;0.60;0.60;;;;;;;;;;6103769;23;20076;-96
2022/11/19 06:49:31;;;;;;;0.60;0.60;;;;;;;;;;6103882;23;20014;-96
2022/11/19 06:51:57;;;;;;;0.70;0.70;;;;;;;;;;6102981;23;20049;-96
2022/11/19 06:54:23;;;;;;;0.60;0.60;;;;;;;;;;6104135;23;20017;-96
2022/11/19 06:56:49;;;;;;;0.70;0.70;;;;;;;;;;6104834;23;20017;-96
2022/11/19 06:59:15;;;;;;;0.60;0.60;;;;;;;;;;6102890;23;20092;-96
2022/11/19 07:01:41;;;;;;;0.60;0.60;;;;;;;;;;6102713;23;20124;-95
2022/11/19 07:04:07;;;;;;;0.60;0.60;;;;;;;;;;6102437;23;20037;-96
2022/11/19 07:06:33;;;;;;;0.70;0.70;;;;;;;;;;6102442;23;20396;-95
2022/11/19 07:08:59;;;;;;;0.60;0.60;;;;;;;;;;6101711;23;20093;-94
2022/11/19 07:11:25;;;;;;;0.60;0.60;;;;;;;;;;6102893;23;20037;-95
2022/11/19 07:13:57;;;;;;;0.70;0.70;;;;;;;;;;6103383;23;20097;-96
2022/11/19 07:16:31;;;;;;;0.60;0.60;;;;;;;;;;6103984;23;20349;-96
2022/11/19 07:18:57;;;;;;;0.60;0.60;;;;;;;;;;6103357;23;20069;-96
2022/11/19 07:21:23;;;;;;;0.60;0.60;;;;;;;;;;6103985;23;20025;-96
2022/11/19 07:23:50;;;;;;;0.65;0.65;;;;;;;;;;6105516;23;20083;-96
2022/11/19 07:26:18;;;;;;;0.68;0.68;;;;;;;;;;6080695;23;20022;-96
2022/11/19 07:28:44;;;;;;;0.60;0.60;;;;;;;;;;6105546;23;20014;-96
2022/11/19 07:31:10;;;;;;;0.60;0.60;;;;;;;;;;6103280;23;20018;-96
2022/11/19 07:33:38;;;;;;;0.60;0.60;;;;;;;;;;6104168;23;20018;-96
2022/11/19 07:36:04;;;;;;;0.60;0.60;;;;;;;;;;6104821;23;20017;-96
2022/11/19 07:38:31;;;;;;;0.60;0.60;;;;;;;;;;6102698;23;20024;-96
2022/11/19 07:40:56;;;;;;;0.60;0.60;;;;;;;;;;6102800;23;20403;-96
2022/11/19 07:43:23;;;;;;;0.70;0.70;;;;;;;;;;6103367;23;20022;-95
2022/11/19 07:45:49;;;;;;;0.57;0.57;;;;;;;;;;6102290;23;20013;-96
2022/11/19 07:48:15;;;;;;;0.57;0.57;;;;;;;;;;6103130;23;20014;-95
2022/11/19 07:50:41;;;;;;;0.60;0.60;;;;;;;;;;6102410;23;20014;-96
2022/11/19 07:53:07;;;;;;;0.60;0.60;;;;;;;;;;6102057;23;20072;-96
2022/11/19 07:55:33;;;;;;;0.60;0.60;;;;;;;;;;6102784;23;20014;-96
2022/11/19 07:57:59;;;;;;;0.60;0.60;;;;;;;;;;6103270;23;20022;-96
2022/11/19 08:00:26;;;;;;;0.60;0.60;;;;;;;;;;6102978;23;20021;-96
2022/11/19 08:02:52;;;;;;;0.50;0.50;;;;;;;;;;6102733;23;20018;-96
2022/11/19 08:05:17;;;;;;;0.90;0.90;;;;;;;;;;6103757;23;20500;-96
2022/11/19 08:07:44;;;;;;;0.70;0.70;;;;;;;;;;6102588;23;20022;-96
2022/11/19 08:10:10;;;;;;;0.60;0.60;;;;;;;;;;6103105;23;20088;-96
2022/11/19 08:12:36;;;;;;;0.57;0.57;;;;;;;;;;6103769;23;20454;-96
2022/11/19 08:15:02;;;;;;;0.77;0.77;;;;;;;;;;6101612;23;20010;-96
2022/11/19 08:20:13;;;;;;;0.60;0.60;;;;;;;;;;6125500;23;20029;-96
2022/11/19 08:22:40;;;;;;;0.60;0.60;;;;;;;;;;6101577;23;20034;-96
2022/11/19 08:25:07;;;;;;;0.68;0.68;;;;;;;;;;6101008;23;20017;-96
2022/11/19 08:27:33;;;;;;;0.65;0.65;;;;;;;;;;6102540;23;20170;-96
2022/11/19 08:29:59;;;;;;;0.70;0.70;;;;;;;;;;6105672;23;20014;-96
2022/11/19 08:32:25;;;;;;;0.60;0.60;;;;;;;;;;6106352;23;20067;-96
2022/11/19 08:34:51;;;;;;;0.60;0.60;;;;;;;;;;6107062;23;20458;-96
2022/11/19 08:37:17;;;;;;;0.60;0.60;;;;;;;;;;6108506;23;20018;-96
2022/11/19 08:39:43;;;;;;;0.60;0.60;;;;;;;;;;6106674;23;20048;-95
2022/11/19 08:44:54;;;;;;;1.38;1.27;;;;;;;;;;6130565;23;20024;-96
2022/11/19 08:47:21;;;;;;;0.70;0.70;;;;;;;;;;6106176;23;20029;-96
2022/11/19 08:49:47;;;;;;;0.60;0.60;;;;;;;;;;6105835;23;20052;-96
2022/11/19 08:52:16;;;;;;;0.68;0.68;;;;;;;;;;6106909;23;20017;-95
2022/11/19 08:54:42;;;;;;;0.70;0.70;;;;;;;;;;6106019;23;20014;-96
2022/11/19 08:57:07;;;;;;;0.60;0.60;;;;;;;;;;6106474;23;20021;-95
2022/11/19 08:59:34;;;;;;;3.22;0.93;;;;;;;;;;6106429;23;20534;-96
2022/11/19 09:02:00;;;;;;;0.65;0.65;;;;;;;;;;6107202;23;20078;-96
2022/11/19 09:04:27;;;;;;;0.60;0.60;;;;;;;;;;6110912;23;20017;-96
2022/11/19 09:06:52;;;;;;;0.50;0.50;;;;;;;;;;6107867;23;20024;-96
2022/11/19 09:09:18;;;;;;;0.70;0.70;;;;;;;;;;6109185;23;20013;-96
2022/11/19 09:11:45;;;;;;;0.60;0.60;;;;;;;;;;6106380;23;20028;-96
2022/11/19 09:14:11;;;;;;;0.60;0.60;;;;;;;;;;6106101;23;20168;-95
2022/11/19 09:16:37;;;;;;;0.70;0.70;;;;;;;;;;6106532;23;20049;-96
2022/11/19 09:19:03;;;;;;;0.60;0.60;;;;;;;;;;6107063;23;20022;-94
2022/11/19 09:21:29;;;;;;;0.65;0.65;;;;;;;;;;6105962;23;20021;-95
2022/11/19 09:23:55;;;;;;;0.63;0.63;;;;;;;;;;6106501;23;20160;-95
2022/11/19 09:26:21;;;;;;;0.70;0.70;;;;;;;;;;6106498;23;20076;-95
2022/11/19 09:28:48;;;;;;;0.50;0.50;;;;;;;;;;6106477;23;20005;-94
2022/11/19 09:31:15;;;;;;;0.47;0.47;;;;;;;;;;6101067;23;20387;-95
2022/11/19 09:33:42;;;;;;;0.52;0.52;;;;;;;;;;6101205;23;20014;-95
2022/11/19 09:36:09;;;;;;;0.60;0.60;;;;;;;;;;6101078;23;20034;-94
2022/11/19 09:38:35;;;;;;;0.70;0.70;;;;;;;;;;6100854;23;20017;-96
2022/11/19 09:41:11;;;;;;;0.60;0.60;;;;;;;;;;6100916;23;20092;-95
2022/11/19 09:43:48;;;;;;;0.50;0.50;;;;;;;;;;6100941;23;20018;-95
2022/11/19 09:46:33;;;;;;;0.70;0.70;;;;;;;;;;6102102;23;20018;-96
2022/11/19 09:49:02;;;;;;;0.55;0.55;;;;;;;;;;6101808;23;20036;-95
2022/11/19 09:51:29;;;;;;;2.03;1.90;;;;;;;;;;6103521;23;20014;-96
2022/11/19 09:54:00;;;;;;;1.45;0.95;;;;;;;;;;6104055;23;20018;-95
2022/11/19 09:56:29;;;;;;;0.50;0.50;;;;;;;;;;6102778;23;20026;-95
2022/11/19 09:58:56;;;;;;;0.60;0.60;;;;;;;;;;6102230;23;20018;-95
2022/11/19 10:01:22;;;;;;;0.60;0.60;;;;;;;;;;6103001;23;20022;-95
2022/11/19 10:03:49;;;;;;;0.40;0.40;;;;;;;;;;6104161;23;20018;-96
2022/11/19 10:06:19;;;;;;;0.60;0.60;;;;;;;;;;6102496;23;20053;-96
2022/11/19 10:09:03;;;;;;;0.60;0.60;;;;;;;;;;6102637;23;20014;-90
2022/11/19 10:11:32;;;;;;;0.60;0.60;;;;;;;;;;6103547;23;20014;-94
2022/11/19 10:14:10;;;;;;;0.50;0.50;;;;;;;;;;6101924;23;20014;-96
2022/11/19 10:16:55;;;;;;;0.50;0.50;;;;;;;;;;6102688;23;20053;-93
2022/11/19 10:19:38;;;;;;;0.60;0.60;;;;;;;;;;6103593;23;20029;-96
2022/11/19 10:22:13;;;;;;;0.80;0.80;;;;;;;;;;6102574;23;20018;-93
2022/11/19 10:24:52;;;;;;;0.65;0.65;;;;;;;;;;6102211;23;20018;-94
2022/11/19 10:27:41;;;;;;;0.60;0.60;;;;;;;;;;6101836;23;20081;-93
2022/11/19 10:30:13;;;;;;;0.65;0.65;;;;;;;;;;6088467;23;20021;-94
2022/11/19 10:32:42;;;;;;;0.70;0.70;;;;;;;;;;6131228;23;20010;-93
2022/11/19 10:35:14;;;;;;;0.60;0.60;;;;;;;;;;6107062;23;20616;-94
2022/11/19 10:37:45;;;;;;;0.50;0.50;;;;;;;;;;6107004;23;20096;-95
2022/11/19 10:40:16;;;;;;;0.60;0.60;;;;;;;;;;6107797;23;20447;-93
2022/11/19 10:42:48;;;;;;;0.60;0.60;;;;;;;;;;6106802;23;20529;-95
2022/11/19 10:45:17;;;;;;;0.60;0.60;;;;;;;;;;6107336;23;20024;-94
2022/11/19 10:48:02;;;;;;;0.70;0.70;;;;;;;;;;6106799;23;20017;-93
2022/11/19 10:50:28;;;;;;;0.60;0.60;;;;;;;;;;6106808;23;20052;-95
2022/11/19 10:53:00;;;;;;;0.60;0.60;;;;;;;;;;6109210;23;20037;-96
2022/11/19 10:55:35;;;;;;;0.80;0.80;;;;;;;;;;6110484;23;20021;-96
2022/11/19 10:58:13;;;;;;;0.50;0.50;;;;;;;;;;6109718;23;20017;-95
2022/11/19 11:00:40;;;;;;;0.60;0.60;;;;;;;;;;6109108;23;20023;-95
2022/11/19 11:03:13;;;;;;;0.50;0.50;;;;;;;;;;6107541;23;20017;-95
2022/11/19 11:05:54;;;;;;;0.60;0.60;;;;;;;;;;6107769;23;20017;-95
2022/11/19 11:08:20;;;;;;;0.65;0.65;;;;;;;;;;6109307;23;20022;-96
2022/11/19 11:10:46;;;;;;;0.70;0.70;;;;;;;;;;6108269;23;20017;-94
2022/11/19 11:16:04;;;;;;;0.60;0.60;;;;;;;;;;6132967;23;20056;-95
2022/11/19 11:18:31;;;;;;;0.60;0.60;;;;;;;;;;6108913;23;20041;-95
2022/11/19 11:20:57;;;;;;;0.52;0.52;;;;;;;;;;6108703;23;20568;-95
2022/11/19 11:23:28;;;;;;;0.45;0.45;;;;;;;;;;6107907;23;20053;-94
2022/11/19 11:26:08;;;;;;;0.60;0.60;;;;;;;;;;6108497;23;20014;-94
2022/11/19 11:28:34;;;;;;;0.60;0.60;;;;;;;;;;6133378;23;20068;-95
2022/11/19 11:31:02;;;;;;;0.60;0.60;;;;;;;;;;6105723;23;20017;-95
2022/11/19 11:33:40;;;;;;;0.68;0.68;;;;;;;;;;6104051;23;20109;-95
2022/11/19 11:36:16;;;;;;;0.60;0.60;;;;;;;;;;6103508;23;20045;-96
2022/11/19 11:38:47;;;;;;;0.60;0.60;;;;;;;;;;6102445;23;20313;-96
2022/11/19 11:41:33;;;;;;;0.60;0.60;;;;;;;;;;6103216;23;20014;-95
2022/11/19 11:44:19;;;;;;;0.60;0.60;;;;;;;;;;6078908;23;20013;-96
2022/11/19 11:46:46;;;;;;;0.50;0.50;;;;;;;;;;6107093;23;20329;-96
2022/11/19 11:49:33;;;;;;;0.50;0.50;;;;;;;;;;6102430;23;20058;-95
2022/11/19 11:52:09;;;;;;;0.60;0.60;;;;;;;;;;6127057;23;20014;-96
2022/11/19 11:54:35;;;;;;;0.60;0.60;;;;;;;;;;6104980;23;20023;-95
2022/11/19 11:57:16;;;;;;;0.60;0.60;;;;;;;;;;6104543;23;20053;-95
2022/11/19 11:59:42;;;;;;;0.60;0.60;;;;;;;;;;6106044;23;20025;-96
2022/11/19 12:02:17;;;;;;;0.60;0.60;;;;;;;;;;6106183;23;20502;-96
2022/11/19 12:04:43;;;;;;;0.50;0.50;;;;;;;;;;6105006;23;20018;-96
2022/11/19 12:07:15;;;;;;;0.55;0.55;;;;;;;;;;6107022;23;20061;-96
2022/11/19 12:09:47;;;;;;;0.60;0.60;;;;;;;;;;6103194;23;20016;-96
2022/11/19 12:12:16;;;;;;;0.52;0.52;;;;;;;;;;6101681;23;20010;-95
2022/11/19 12:14:43;;;;;;;0.60;0.60;;;;;;;;;;6102809;23;20024;-94
2022/11/19 12:17:09;;;;;;;0.60;0.60;;;;;;;;;;6102331;23;20029;-95
2022/11/19 12:19:44;;;;;;;0.50;0.50;;;;;;;;;;6102394;23;20018;-94
2022/11/19 12:22:16;;;;;;;0.50;0.50;;;;;;;;;;6103171;23;20024;-96
2022/11/19 12:24:57;;;;;;;0.50;0.50;;;;;;;;;;6102705;23;20096;-96
2022/11/19 12:27:38;;;;;;;0.55;0.55;;;;;;;;;;6103922;23;20018;-95
2022/11/19 12:30:21;;;;;;;0.60;0.60;;;;;;;;;;6109094;23;20025;-95
2022/11/19 12:32:53;;;;;;;0.73;0.73;;;;;;;;;;6107746;23;20069;-95
2022/11/19 12:35:23;;;;;;;0.50;0.50;;;;;;;;;;6107145;23;20017;-95
2022/11/19 12:38:06;;;;;;;0.50;0.50;;;;;;;;;;6106992;23;20048;-95
2022/11/19 12:40:46;;;;;;;0.60;0.60;;;;;;;;;;6107393;23;20068;-94
2022/11/19 12:43:15;;;;;;;0.63;0.63;;;;;;;;;;6106214;23;20025;-94
2022/11/19 12:46:19;;;;;;;0.40;0.40;;;;;;;;;;6108931;23;20017;-96
2022/11/19 12:49:08;;;;;;;0.57;0.57;;;;;;;;;;5965981;23;20155;-91
2022/11/19 12:51:37;;;;;;;0.55;0.55;;;;;;;;;;5998317;23;20497;-94
2022/11/19 12:54:26;;;;;;;0.50;0.50;;;;;;;;;;6082428;23;20435;-95
2022/11/19 12:57:08;;;;;;;0.40;0.40;;;;;;;;;;6107730;23;20017;-93
2022/11/19 12:59:43;;;;;;;0.40;0.40;;;;;;;;;;6110873;23;20017;-95
2022/11/19 13:02:09;;;;;;;;;;;;;;;;;;6110858;23;20028;-94
2022/11/19 13:04:43;;;;;;;0.60;0.60;;;;;;;;;;6108933;23;19943;-94
2022/11/19 13:07:14;;;;;;;0.60;0.60;;;;;;;;;;6109624;23;20013;-95
2022/11/19 13:09:42;;;;;;;0.60;0.60;;;;;;;;;;6112001;23;20029;-94
2022/11/19 13:12:10;;;;;;;0.55;0.55;;;;;;;;;;6111299;23;20005;-94
2022/11/19 13:14:42;;;;;;;0.55;0.55;;;;;;;;;;6112848;23;20013;-95
2022/11/19 13:17:18;;;;;;;0.60;0.60;;;;;;;;;;6112042;23;20045;-96
2022/11/19 13:19:46;;;;;;;0.60;0.60;;;;;;;;;;6106889;23;20296;-95
2022/11/19 13:22:17;;;;;;;0.60;0.60;;;;;;;;;;6106370;23;20028;-94
2022/11/19 13:24:55;;;;;;;0.60;0.60;;;;;;;;;;6108585;23;20096;-94
2022/11/19 13:27:23;;;;;;;0.55;0.55;;;;;;;;;;6109294;23;20073;-93
2022/11/19 13:29:55;;;;;;;0.57;0.57;;;;;;;;;;6107865;23;20049;-94
2022/11/19 13:32:30;;;;;;;0.50;0.50;;;;;;;;;;6109047;23;20020;-94
2022/11/19 13:35:01;;;;;;;0.50;0.50;;;;;;;;;;6109868;23;20088;-95
2022/11/19 13:37:38;;;;;;;0.50;0.50;;;;;;;;;;6110213;23;20028;-92
2022/11/19 13:40:24;;;;;;;0.65;0.65;;;;;;;;;;6108281;23;20451;-94
2022/11/19 13:45:37;;;;;;;0.47;0.47;;;;;;;;;;6132869;23;20022;-94
2022/11/19 13:48:12;;;;;;;0.60;0.60;;;;;;;;;;6107920;23;20022;-95
2022/11/19 13:50:40;;;;;;;0.50;0.50;;;;;;;;;;6107777;23;20013;-94
2022/11/19 13:53:12;;;;;;;0.57;0.57;;;;;;;;;;6107497;23;20017;-93
2022/11/19 13:55:40;;;;;;;0.60;0.60;;;;;;;;;;6107749;23;20447;-94
2022/11/19 13:58:08;;;;;;;0.47;0.47;;;;;;;;;;6107635;23;20021;-94
2022/11/19 14:00:35;;;;;;;0.60;0.60;;;;;;;;;;6107776;23;20118;-94
2022/11/19 14:03:25;;;;;;;0.50;0.50;;;;;;;;;;6111078;23;20022;-95
2022/11/19 14:06:06;;;;;;;0.60;0.60;;;;;;;;;;6043670;23;20032;-96
2022/11/19 14:08:40;;;;;;;0.50;0.50;;;;;;;;;;6107871;23;20459;-93
2022/11/19 14:11:18;;;;;;;0.60;0.60;;;;;;;;;;6107359;23;20053;-95
2022/11/19 14:13:59;;;;;;;0.57;0.57;;;;;;;;;;6109923;23;20088;-96
2022/11/19 14:27:52;;;;;;;0.40;0.40;;;;;;;;;;6132128;23;20482;-93
2022/11/19 14:30:20;;;;;;;0.50;0.50;;;;;;;;;;6102051;23;20093;-94
2022/11/19 14:32:51;;;;;;;0.45;0.45;;;;;;;;;;6103295;23;20092;-94
2022/11/19 14:35:29;;;;;;;0.60;0.60;;;;;;;;;;6102203;23;20089;-93
2022/11/19 14:37:57;;;;;;;0.45;0.45;;;;;;;;;;6102370;23;20014;-94
2022/11/19 14:40:27;;;;;;;0.50;0.50;;;;;;;;;;6102401;23;20018;-95
2022/11/19 14:46:03;;;;;;;0.60;0.60;;;;;;;;;;6127805;23;20040;-94
2022/11/19 14:48:35;;;;;;;0.60;0.60;;;;;;;;;;6103114;23;20018;-95
2022/11/19 14:51:06;;;;;;;0.60;0.60;;;;;;;;;;6102873;23;20014;-93
2022/11/19 14:53:33;;;;;;;0.50;0.50;;;;;;;;;;6103046;23;20050;-94
2022/11/19 14:55:59;;;;;;;0.50;0.50;;;;;;;;;;6103026;23;20068;-95
2022/11/19 14:58:26;;;;;;;0.60;0.60;;;;;;;;;;6102929;23;20029;-94
2022/11/19 15:01:04;;;;;;;0.50;0.50;;;;;;;;;;6101882;23;20390;-95
2022/11/19 15:03:31;;;;;;;0.60;0.60;;;;;;;;;;6102047;23;20017;-95
2022/11/19 15:05:58;;;;;;;0.52;0.52;;;;;;;;;;6102460;23;20093;-95
2022/11/19 15:08:23;;;;;;;0.50;0.50;;;;;;;;;;6102333;23;20325;-95
2022/11/19 15:11:09;;;;;;;0.40;0.40;;;;;;;;;;6102403;23;20069;-93
2022/11/19 15:13:36;;;;;;;0.50;0.50;;;;;;;;;;6102743;23;20056;-94
2022/11/19 15:16:22;;;;;;;0.50;0.50;;;;;;;;;;6102528;23;20017;-93
2022/11/19 15:19:08;;;;;;;0.52;0.52;;;;;;;;;;6101702;23;20021;-94
2022/11/19 15:21:51;;;;;;;0.50;0.50;;;;;;;;;;6031230;23;20113;-94
2022/11/19 15:24:23;;;;;;;0.57;0.57;;;;;;;;;;6102710;23;20021;-95
2022/11/19 15:27:07;;;;;;;0.60;0.60;;;;;;;;;;6102951;23;20018;-94
2022/11/19 15:29:46;;;;;;;0.50;0.50;;;;;;;;;;6102494;23;20017;-94
2022/11/19 15:32:31;;;;;;;0.60;0.60;;;;;;;;;;6102868;23;20033;-93
2022/11/19 15:35:23;;;;;;;0.60;0.60;;;;;;;;;;6102735;23;20518;-93
2022/11/19 15:37:53;;;;;;;0.52;0.52;;;;;;;;;;6096315;23;20018;-94
2022/11/19 15:40:21;;;;;;;0.70;0.70;;;;;;;;;;6102062;23;20018;-94
2022/11/19 15:42:49;;;;;;;0.50;0.50;;;;;;;;;;6101769;23;20018;-92
2022/11/19 15:45:18;;;;;;;0.45;0.45;;;;;;;;;;6101692;23;20029;-94
2022/11/19 15:47:46;;;;;;;0.43;0.43;;;;;;;;;;6101660;23;20018;-94
2022/11/19 15:50:20;;;;;;;0.60;0.60;;;;;;;;;;6102949;23;20233;-95
2022/11/19 15:53:00;;;;;;;0.50;0.50;;;;;;;;;;6102837;23;20022;-94
2022/11/19 15:55:27;;;;;;;0.60;0.60;;;;;;;;;;6102083;23;20014;-94
2022/11/19 15:57:54;;;;;;;0.60;0.60;;;;;;;;;;6102219;23;20022;-94
2022/11/19 16:00:21;;;;;;;0.50;0.50;;;;;;;;;;6102834;23;20107;-95
2022/11/19 16:02:51;;;;;;;0.60;0.60;;;;;;;;;;6102461;23;20097;-94
2022/11/19 16:05:21;;;;;;;0.57;0.57;;;;;;;;;;6102811;23;20018;-93
2022/11/19 16:07:49;;;;;;;0.60;0.60;;;;;;;;;;6102934;23;20017;-94
2022/11/19 16:10:17;;;;;;;0.60;0.60;;;;;;;;;;6103314;23;20014;-94
2022/11/19 16:18:22;;;;;;;0.70;0.70;;;;;;;;;;6128856;23;20081;-94
2022/11/19 16:20:50;;;;;;;0.50;0.50;;;;;;;;;;6104380;23;20018;-94
2022/11/19 16:23:18;;;;;;;0.52;0.52;;;;;;;;;;6104345;23;20052;-95
2022/11/19 16:25:45;;;;;;;0.60;0.60;;;;;;;;;;6104205;23;20022;-94
2022/11/19 16:28:17;;;;;;;0.60;0.60;;;;;;;;;;6103891;23;20073;-95
2022/11/19 16:30:45;;;;;;;0.50;0.50;;;;;;;;;;6103898;23;20013;-95
2022/11/19 16:33:24;;;;;;;0.60;0.60;;;;;;;;;;6104540;23;20018;-94
2022/11/19 16:35:50;;;;;;;0.70;0.70;;;;;;;;;;6103765;23;20010;-93
2022/11/19 16:38:36;;;;;;;0.60;0.60;;;;;;;;;;6104533;23;20041;-94
2022/11/19 16:43:49;;;;;;;0.60;0.60;;;;;;;;;;6129582;23;20032;-94
2022/11/19 16:46:18;;;;;;;0.60;0.60;;;;;;;;;;6105695;23;20069;-94
2022/11/19 16:48:54;;;;;;;0.50;0.50;;;;;;;;;;6105760;23;20519;-94
2022/11/19 16:51:32;;;;;;;0.52;0.52;;;;;;;;;;6106509;23;20018;-93
2022/11/19 16:53:58;;;;;;;0.45;0.45;;;;;;;;;;6106225;23;20010;-94
2022/11/19 16:56:25;;;;;;;0.60;0.60;;;;;;;;;;6105906;23;20025;-93
2022/11/19 16:58:57;;;;;;;0.50;0.50;;;;;;;;;;6105644;23;20022;-94
2022/11/19 17:01:24;;;;;;;0.60;0.60;;;;;;;;;;6106621;23;20054;-94
2022/11/19 17:03:50;;;;;;;0.50;0.50;;;;;;;;;;6105882;23;20022;-95
2022/11/19 17:06:23;;;;;;;0.52;0.52;;;;;;;;;;6106306;23;20033;-93
2022/11/19 17:08:56;;;;;;;0.60;0.60;;;;;;;;;;6106684;23;20010;-93
2022/11/19 17:14:12;;;;;;;0.60;0.60;;;;;;;;;;6130663;23;20018;-93
2022/11/19 17:16:38;;;;;;;0.60;0.60;;;;;;;;;;6107280;23;20018;-93
2022/11/19 17:19:23;;;;;;;0.65;0.65;;;;;;;;;;6107624;23;20017;-95
2022/11/19 17:21:54;;;;;;;0.65;0.65;;;;;;;;;;6107251;23;20451;-94
2022/11/19 17:24:21;;;;;;;0.60;0.60;;;;;;;;;;6107748;23;20146;-94
2022/11/19 17:26:48;;;;;;;0.52;0.52;;;;;;;;;;6107995;23;20065;-95
2022/11/19 17:29:19;;;;;;;0.65;0.65;;;;;;;;;;6108416;23;20014;-95
2022/11/19 17:31:50;;;;;;;0.60;0.60;;;;;;;;;;6108561;23;20060;-94
2022/11/19 17:34:25;;;;;;;0.60;0.60;;;;;;;;;;6109247;23;20475;-95
2022/11/19 17:36:51;;;;;;;0.50;0.50;;;;;;;;;;6109203;23;20095;-92
2022/11/19 17:39:18;;;;;;;0.57;0.57;;;;;;;;;;6109623;23;20025;-95
2022/11/19 17:44:37;;;;;;;0.50;0.50;;;;;;;;;;6132541;23;20049;-95
2022/11/19 17:47:14;;;;;;;0.60;0.60;;;;;;;;;;6107618;23;20018;-94
2022/11/19 17:49:41;;;;;;;0.50;0.50;;;;;;;;;;6107183;23;20044;-94
2022/11/19 17:52:07;;;;;;;0.60;0.60;;;;;;;;;;6104624;23;20014;-95
2022/11/19 17:54:33;;;;;;;0.60;0.60;;;;;;;;;;6102978;23;20025;-95
2022/11/19 17:56:59;;;;;;;0.60;0.60;;;;;;;;;;6102498;23;20053;-95
2022/11/19 17:59:25;;;;;;;0.68;0.68;;;;;;;;;;6102564;23;20018;-95
2022/11/19 18:01:52;;;;;;;0.60;0.60;;;;;;;;;;6101530;23;20057;-96
2022/11/19 18:04:18;;;;;;;0.60;0.60;;;;;;;;;;6101196;23;20450;-95
2022/11/19 18:06:46;;;;;;;0.60;0.60;;;;;;;;;;6101121;23;20113;-96
2022/11/19 18:09:11;;;;;;;0.60;0.60;;;;;;;;;;6125361;23;20010;-95
2022/11/19 18:11:39;;;;;;;0.75;0.75;;;;;;;;;;6102345;23;20033;-95
2022/11/19 18:14:08;;;;;;;0.70;0.70;;;;;;;;;;6102844;23;20018;-95
2022/11/19 18:16:37;;;;;;;0.60;0.60;;;;;;;;;;6102811;23;20400;-95
2022/11/19 18:19:08;;;;;;;0.60;0.60;;;;;;;;;;6102685;23;20069;-95
2022/11/19 18:21:34;;;;;;;0.60;0.60;;;;;;;;;;6102835;23;20018;-95
2022/11/19 18:24:01;;;;;;;0.50;0.50;;;;;;;;;;6127242;23;20018;-95
2022/11/19 18:26:27;;;;;;;0.65;0.65;;;;;;;;;;6102691;23;20018;-93
2022/11/19 18:28:53;;;;;;;0.60;0.60;;;;;;;;;;6102525;23;20017;-94
2022/11/19 18:31:20;;;;;;;0.70;0.70;;;;;;;;;;6102645;23;20014;-96
2022/11/19 18:33:47;;;;;;;0.60;0.60;;;;;;;;;;6102769;23;20024;-96
2022/11/19 18:36:13;;;;;;;0.60;0.60;;;;;;;;;;6127344;23;20014;-96
2022/11/19 18:38:39;;;;;;;0.70;0.70;;;;;;;;;;6127190;23;20014;-95
2022/11/19 18:41:05;;;;;;;0.70;0.70;;;;;;;;;;6102381;23;20021;-95